createdAt,value
2023-02-08T00:00:44.083Z,29.45
2023-02-08T00:03:10.897Z,31.85
2023-02-08T00:05:38.142Z,28.85
2023-02-08T00:08:05.592Z,32.60
2023-02-08T00:10:32.314Z,33.92
2023-02-08T00:12:59.057Z,32.00
2023-02-08T00:15:25.696Z,35.53
2023-02-08T00:17:52.369Z,36.03
2023-02-08T00:20:19.377Z,35.17
2023-02-08T00:22:46.215Z,32.22
2023-02-08T00:25:12.853Z,33.05
2023-02-08T00:27:39.684Z,33.83
2023-02-08T00:30:07.139Z,36.03
2023-02-08T00:32:33.847Z,35.13
2023-02-08T00:35:00.505Z,35.80
2023-02-08T00:37:27.188Z,37.25
2023-02-08T00:39:53.853Z,32.00
2023-02-08T00:42:20.543Z,30.65
2023-02-08T00:44:47.238Z,31.92
2023-02-08T00:47:13.950Z,31.38
2023-02-08T00:49:40.603Z,30.67
2023-02-08T00:52:07.265Z,34.35
2023-02-08T00:54:33.907Z,28.33
2023-02-08T00:57:00.678Z,33.20
2023-02-08T00:59:27.871Z,32.05
2023-02-08T01:01:54.668Z,33.70
2023-02-08T01:04:21.377Z,34.95
2023-02-08T01:06:48.055Z,29.13
2023-02-08T01:09:14.660Z,31.50
2023-02-08T01:11:41.371Z,31.20
2023-02-08T01:14:08.047Z,34.70
2023-02-08T01:16:35.096Z,38.53
2023-02-08T01:19:03.942Z,32.30
2023-02-08T01:21:33.735Z,36.72
2023-02-08T01:24:01.087Z,34.40
2023-02-08T01:26:28.452Z,32.80
2023-02-08T01:28:56.319Z,32.08
2023-02-08T01:31:30.919Z,34.75
2023-02-08T01:33:58.515Z,29.52
2023-02-08T01:36:26.623Z,34.38
2023-02-08T01:38:53.635Z,30.17
2023-02-08T01:41:23.613Z,34.28
2023-02-08T01:46:26.091Z,34.22
2023-02-08T01:48:54.110Z,34.10
2023-02-08T01:51:24.016Z,32.30
2023-02-08T01:56:33.977Z,31.60
2023-02-08T01:59:05.118Z,35.10
2023-02-08T02:01:32.715Z,35.85
2023-02-08T02:04:07.207Z,35.53
2023-02-08T02:06:37.010Z,29.38
2023-02-08T02:09:16.695Z,35.78
2023-02-08T02:11:44.136Z,29.88
2023-02-08T02:14:11.231Z,34.78
2023-02-08T02:16:37.912Z,32.75
2023-02-08T02:19:15.024Z,34.92
2023-02-08T02:21:53.341Z,29.92
2023-02-08T02:24:48.171Z,31.38
2023-02-08T02:27:41.899Z,31.60
2023-02-08T02:30:08.527Z,34.22
2023-02-08T02:32:48.769Z,31.52
2023-02-08T02:35:41.229Z,31.13
2023-02-08T02:38:28.549Z,31.35
2023-02-08T02:41:40.704Z,29.20
2023-02-08T02:44:14.629Z,31.33
2023-02-08T02:46:48.952Z,32.30
2023-02-08T02:49:22.915Z,29.23
2023-02-08T02:51:58.710Z,30.30
2023-02-08T02:54:35.932Z,33.00
2023-02-08T02:57:06.467Z,31.45
2023-02-08T02:59:35.644Z,34.92
2023-02-08T03:02:03.804Z,31.25
2023-02-08T03:04:33.611Z,30.95
2023-02-08T03:07:03.312Z,30.35
2023-02-08T03:09:55.354Z,27.60
2023-02-08T03:12:36.911Z,30.10
2023-02-08T03:15:12.263Z,30.30
2023-02-08T03:17:59.154Z,35.50
2023-02-08T03:20:30.810Z,34.60
2023-02-08T03:23:04.099Z,28.67
2023-02-08T03:25:34.968Z,33.22
2023-02-08T03:28:25.432Z,29.83
2023-02-08T03:31:10.957Z,30.67
2023-02-08T03:33:47.536Z,28.38
2023-02-08T03:36:24.961Z,33.05
2023-02-08T03:38:54.199Z,32.13
2023-02-08T03:41:28.501Z,37.35
2023-02-08T03:44:10.905Z,32.22
2023-02-08T03:46:42.062Z,31.08
2023-02-08T03:49:15.127Z,30.75
2023-02-08T03:51:45.047Z,31.98
2023-02-08T03:54:20.879Z,33.03
2023-02-08T03:57:04.165Z,35.30
2023-02-08T03:59:38.854Z,33.78
2023-02-08T04:02:08.218Z,35.78
2023-02-08T04:04:38.921Z,37.70
2023-02-08T04:07:06.574Z,28.23
2023-02-08T04:09:33.268Z,31.38
2023-02-08T04:11:59.977Z,32.60
2023-02-08T04:14:26.635Z,31.20
2023-02-08T04:16:53.492Z,35.63
2023-02-08T04:19:20.130Z,34.78
2023-02-08T04:21:46.806Z,34.80
2023-02-08T04:24:13.564Z,35.92
2023-02-08T04:26:40.326Z,37.30
2023-02-08T04:29:06.984Z,32.28
2023-02-08T04:31:33.723Z,31.90
2023-02-08T04:34:00.472Z,35.50
2023-02-08T04:36:27.165Z,34.47
2023-02-08T04:38:53.826Z,27.77
2023-02-08T04:41:20.523Z,31.60
2023-02-08T04:43:47.400Z,29.40
2023-02-08T04:46:14.152Z,31.02
2023-02-08T04:48:40.956Z,31.67
2023-02-08T04:51:07.659Z,33.20
2023-02-08T04:53:34.881Z,37.97
2023-02-08T04:56:01.542Z,31.95
2023-02-08T04:58:28.192Z,30.38
2023-02-08T05:00:54.797Z,29.52
2023-02-08T05:03:21.519Z,32.97
2023-02-08T05:05:57.513Z,29.73
2023-02-08T05:08:24.520Z,32.60
2023-02-08T05:10:51.186Z,34.00
2023-02-08T05:13:17.874Z,32.53
2023-02-08T05:15:44.539Z,32.67
2023-02-08T05:18:11.270Z,28.85
2023-02-08T05:20:38.003Z,33.72
2023-02-08T05:23:05.994Z,30.60
2023-02-08T05:25:32.656Z,30.88
2023-02-08T05:28:00.209Z,32.10
2023-02-08T05:30:26.887Z,30.90
2023-02-08T05:32:53.547Z,28.85
2023-02-08T05:35:20.239Z,27.77
2023-02-08T05:37:46.898Z,26.85
2023-02-08T05:40:13.545Z,27.75
2023-02-08T05:42:42.172Z,33.97
2023-02-08T05:45:09.165Z,31.30
2023-02-08T05:47:36.877Z,30.90
2023-02-08T05:50:03.748Z,29.75
2023-02-08T05:52:30.582Z,24.52
2023-02-08T05:54:57.241Z,29.15
2023-02-08T05:57:23.982Z,28.00
2023-02-08T05:59:50.586Z,28.45
2023-02-08T06:02:17.321Z,29.05
2023-02-08T06:04:43.987Z,28.50
2023-02-08T06:07:10.646Z,32.13
2023-02-08T06:09:37.506Z,27.73
2023-02-08T06:12:04.325Z,31.30
2023-02-08T06:14:31.095Z,30.95
2023-02-08T06:16:57.962Z,29.15
2023-02-08T06:19:24.678Z,31.20
2023-02-08T06:21:51.534Z,28.95
2023-02-08T06:24:18.355Z,33.25
2023-02-08T06:26:45.124Z,35.03
2023-02-08T06:29:11.928Z,36.47
2023-02-08T06:31:38.607Z,35.58
2023-02-08T06:34:05.325Z,28.75
2023-02-08T06:36:32.322Z,29.58
2023-02-08T06:38:58.989Z,33.25
2023-02-08T06:41:25.768Z,34.90
2023-02-08T06:43:52.449Z,30.77
2023-02-08T06:46:19.058Z,32.42
2023-02-08T06:48:45.691Z,34.78
2023-02-08T06:51:12.323Z,33.97
2023-02-08T06:53:38.998Z,33.63
2023-02-08T06:56:06.011Z,33.50
2023-02-08T06:58:32.737Z,32.85
2023-02-08T07:00:59.463Z,34.33
2023-02-08T07:03:26.176Z,41.03
2023-02-08T07:06:04.411Z,34.47
2023-02-08T07:08:33.239Z,33.00
2023-02-08T07:10:59.894Z,35.20
2023-02-08T07:13:26.550Z,31.88
2023-02-08T07:15:53.155Z,33.05
2023-02-08T07:18:19.798Z,34.53
2023-02-08T07:20:46.436Z,38.35
2023-02-08T07:23:13.153Z,35.00
2023-02-08T07:25:39.773Z,37.30
2023-02-08T07:28:06.487Z,32.10
2023-02-08T07:30:33.214Z,35.13
2023-02-08T07:32:59.929Z,37.90
2023-02-08T07:35:26.906Z,39.10
2023-02-08T07:37:53.833Z,40.00
2023-02-08T07:40:20.531Z,34.22
2023-02-08T07:42:47.205Z,36.45
2023-02-08T07:45:13.876Z,31.75
2023-02-08T07:47:40.543Z,36.05
2023-02-08T07:50:07.333Z,37.30
2023-02-08T07:52:34.094Z,33.38
2023-02-08T07:55:00.734Z,36.92
2023-02-08T07:57:27.413Z,37.53
2023-02-08T07:59:54.326Z,34.92
2023-02-08T08:02:21.115Z,43.67
2023-02-08T08:04:47.911Z,41.40
2023-02-08T08:07:14.587Z,35.53
2023-02-08T08:09:41.296Z,43.13
2023-02-08T08:12:07.995Z,41.30
2023-02-08T08:14:34.629Z,38.42
2023-02-08T08:17:01.271Z,61.03
2023-02-08T08:19:28.404Z,51.20
2023-02-08T08:21:58.197Z,45.28
2023-02-08T08:24:25.029Z,42.47
2023-02-08T08:26:51.700Z,43.05
2023-02-08T08:29:18.413Z,39.42
2023-02-08T08:31:45.110Z,39.13
2023-02-08T08:34:11.967Z,41.92
2023-02-08T08:36:38.635Z,41.30
2023-02-08T08:39:05.334Z,34.33
2023-02-08T08:41:32.106Z,42.00
2023-02-08T08:43:58.795Z,36.63
2023-02-08T08:46:25.487Z,34.08
2023-02-08T08:48:52.395Z,36.28
2023-02-08T08:51:19.042Z,35.70
2023-02-08T08:53:45.711Z,36.90
2023-02-08T08:56:12.360Z,38.72
2023-02-08T08:58:39.095Z,37.35
2023-02-08T09:01:05.842Z,34.50
2023-02-08T09:03:32.655Z,36.03
2023-02-08T09:05:59.457Z,32.92
2023-02-08T09:08:26.266Z,32.88
2023-02-08T09:10:52.988Z,35.60
2023-02-08T09:13:21.246Z,41.20
2023-02-08T09:15:49.154Z,39.10
2023-02-08T09:18:16.236Z,38.38
2023-02-08T09:20:43.504Z,34.80
2023-02-08T09:23:10.443Z,35.97
2023-02-08T09:25:37.818Z,40.08
2023-02-08T09:28:05.233Z,39.28
2023-02-08T09:30:32.490Z,34.22
2023-02-08T09:32:59.225Z,36.95
2023-02-08T09:35:25.890Z,31.17
2023-02-08T09:37:58.082Z,27.85
2023-02-08T09:40:27.616Z,29.38
2023-02-08T09:43:20.168Z,29.50
2023-02-08T09:46:00.525Z,24.98
2023-02-08T09:48:38.855Z,26.55
2023-02-08T09:51:30.515Z,28.95
2023-02-08T09:54:07.277Z,26.67
2023-02-08T09:56:40.224Z,27.52
2023-02-08T09:59:16.001Z,27.70
2023-02-08T10:01:42.968Z,26.45
2023-02-08T10:04:20.445Z,25.58
2023-02-08T10:06:49.685Z,24.13
2023-02-08T10:09:22.369Z,25.95
2023-02-08T10:11:58.344Z,35.60
2023-02-08T10:14:41.073Z,27.15
2023-02-08T10:17:40.688Z,26.38
2023-02-08T10:20:19.474Z,24.73
2023-02-08T10:23:22.433Z,27.35
2023-02-08T10:26:21.961Z,25.23
2023-02-08T10:29:00.638Z,24.15
2023-02-08T10:31:39.758Z,25.27
2023-02-08T10:34:24.643Z,22.07
2023-02-08T10:36:52.274Z,23.17
2023-02-08T10:39:25.883Z,21.25
2023-02-08T10:41:52.868Z,22.25
2023-02-08T10:44:19.488Z,25.83
2023-02-08T10:47:00.468Z,23.73
2023-02-08T10:49:30.128Z,23.38
2023-02-08T10:51:56.915Z,25.02
2023-02-08T10:54:23.648Z,24.08
2023-02-08T10:56:57.573Z,21.60
2023-02-08T10:59:49.226Z,23.75
2023-02-08T11:02:50.753Z,26.98
2023-02-08T11:05:37.867Z,21.42
2023-02-08T11:08:16.910Z,26.02
2023-02-08T11:13:13.089Z,20.65
2023-02-08T11:15:52.716Z,22.83
2023-02-08T11:18:36.151Z,21.90
2023-02-08T11:21:04.665Z,23.20
2023-02-08T11:23:38.043Z,23.48
2023-02-08T11:26:37.116Z,22.55
2023-02-08T11:29:11.632Z,21.23
2023-02-08T11:31:40.633Z,21.45
2023-02-08T11:34:23.817Z,22.90
2023-02-08T11:36:50.614Z,25.60
2023-02-08T11:39:28.070Z,21.05
2023-02-08T11:41:58.989Z,19.90
2023-02-08T11:44:33.543Z,19.92
2023-02-08T11:47:02.771Z,25.67
2023-02-08T11:49:44.206Z,21.40
2023-02-08T11:52:35.518Z,22.42
2023-02-08T11:55:19.027Z,19.73
2023-02-08T11:58:11.526Z,20.58
2023-02-08T12:00:40.144Z,20.63
2023-02-08T12:03:18.388Z,18.58
2023-02-08T12:06:12.041Z,20.70
2023-02-08T12:08:53.801Z,20.25
2023-02-08T12:11:27.123Z,22.38
2023-02-08T12:14:11.605Z,22.25
2023-02-08T12:17:03.027Z,19.15
2023-02-08T12:19:59.823Z,26.50
2023-02-08T12:22:28.556Z,22.83
2023-02-08T12:25:23.530Z,25.95
2023-02-08T12:28:09.771Z,19.27
2023-02-08T12:30:49.239Z,20.90
2023-02-08T12:33:18.798Z,19.95
2023-02-08T12:36:05.463Z,21.13
2023-02-08T12:39:18.376Z,47.38
2023-02-08T12:41:54.691Z,49.97
2023-02-08T12:44:30.826Z,28.55
2023-02-08T12:47:28.269Z,20.67
2023-02-08T12:50:00.949Z,19.02
2023-02-08T12:52:41.455Z,17.10
2023-02-08T12:55:19.031Z,18.67
2023-02-08T12:57:52.904Z,16.83
2023-02-08T13:00:29.059Z,14.75
2023-02-08T13:03:53.073Z,20.48
2023-02-08T13:06:27.236Z,17.73
2023-02-08T13:09:13.323Z,17.63
2023-02-08T13:11:51.704Z,19.65
2023-02-08T13:15:28.524Z,18.85
2023-02-08T13:18:04.250Z,18.70
2023-02-08T13:20:47.940Z,15.65
2023-02-08T13:23:25.794Z,16.65
2023-02-08T13:26:00.793Z,17.30
2023-02-08T13:28:28.319Z,17.10
2023-02-08T13:30:59.531Z,18.17
2023-02-08T13:34:00.853Z,17.10
2023-02-08T13:36:34.681Z,16.30
2023-02-08T13:39:05.580Z,14.00
2023-02-08T13:41:33.758Z,23.00
2023-02-08T13:44:09.286Z,16.73
2023-02-08T13:46:50.362Z,16.35
2023-02-08T13:49:49.522Z,13.82
2023-02-08T13:52:47.099Z,19.30
2023-02-08T13:55:38.211Z,16.27
2023-02-08T13:58:26.418Z,14.77
2023-02-08T14:01:01.008Z,12.13
2023-02-08T14:03:30.429Z,15.18
2023-02-08T14:05:59.022Z,14.05
2023-02-08T14:08:28.404Z,12.75
2023-02-08T14:11:14.411Z,13.55
2023-02-08T14:13:59.761Z,18.30
2023-02-08T14:16:29.516Z,24.10
2023-02-08T14:19:20.774Z,12.63
2023-02-08T14:22:02.256Z,14.07
2023-02-08T14:24:34.570Z,14.35
2023-02-08T14:27:09.878Z,12.48
2023-02-08T14:29:37.260Z,12.13
2023-02-08T14:32:05.032Z,13.20
2023-02-08T14:34:35.748Z,14.85
2023-02-08T14:37:11.022Z,11.77
2023-02-08T14:39:37.884Z,11.52
2023-02-08T14:42:08.630Z,17.73
2023-02-08T14:44:38.326Z,15.73
2023-02-08T14:47:12.765Z,15.30
2023-02-08T14:49:44.916Z,14.35
2023-02-08T14:52:20.127Z,13.88
2023-02-08T14:54:48.585Z,12.80
2023-02-08T14:57:26.391Z,16.13
2023-02-08T14:59:54.103Z,14.18
2023-02-08T15:02:25.739Z,14.27
2023-02-08T15:04:53.010Z,16.02
2023-02-08T15:07:45.942Z,17.52
2023-02-08T15:10:15.654Z,13.85
2023-02-08T15:12:45.835Z,16.50
2023-02-08T15:17:51.250Z,17.92
2023-02-08T15:20:21.602Z,14.63
2023-02-08T15:22:48.645Z,15.68
2023-02-08T15:25:29.980Z,15.52
2023-02-08T15:28:18.961Z,18.00
2023-02-08T15:30:52.720Z,18.73
2023-02-08T15:33:21.100Z,15.43
2023-02-08T15:35:57.668Z,17.92
2023-02-08T15:38:24.596Z,16.52
2023-02-08T15:41:09.278Z,17.90
2023-02-08T15:43:37.530Z,19.55
2023-02-08T15:46:25.531Z,17.63
2023-02-08T15:48:53.927Z,18.05
2023-02-08T15:51:23.168Z,17.30
2023-02-08T15:53:53.297Z,19.45
2023-02-08T15:59:05.483Z,16.58
2023-02-08T16:01:32.578Z,19.17
2023-02-08T16:04:05.976Z,15.80
2023-02-08T16:06:44.618Z,18.10
2023-02-08T16:09:19.888Z,16.85
2023-02-08T16:11:50.030Z,17.52
2023-02-08T16:16:48.548Z,18.95
2023-02-08T16:19:31.239Z,19.23
2023-02-08T16:22:25.540Z,20.17
2023-02-08T16:24:52.259Z,18.92
2023-02-08T16:27:30.249Z,16.98
2023-02-08T16:29:57.479Z,22.23
2023-02-08T16:32:33.524Z,20.88
2023-02-08T16:35:10.872Z,16.92
2023-02-08T16:37:37.655Z,19.13
2023-02-08T16:40:27.145Z,22.23
2023-02-08T16:43:18.108Z,16.33
2023-02-08T16:45:44.802Z,17.45
2023-02-08T16:48:33.276Z,21.63
2023-02-08T16:51:00.712Z,20.58
2023-02-08T16:53:41.238Z,21.30
2023-02-08T16:56:09.853Z,24.20
2023-02-08T16:58:37.008Z,27.70
2023-02-08T17:01:04.569Z,21.35
2023-02-08T17:03:32.710Z,20.02
2023-02-08T17:06:00.975Z,22.50
2023-02-08T17:08:27.939Z,23.20
2023-02-08T17:10:58.755Z,20.90
2023-02-08T17:13:28.744Z,22.23
2023-02-08T17:15:55.686Z,24.02
2023-02-08T17:18:22.359Z,22.17
2023-02-08T17:20:49.108Z,24.60
2023-02-08T17:23:15.897Z,21.58
2023-02-08T17:25:43.476Z,21.42
2023-02-08T17:28:18.554Z,27.63
2023-02-08T17:30:46.238Z,23.20
2023-02-08T17:33:20.012Z,24.00
2023-02-08T17:35:49.834Z,22.65
2023-02-08T17:38:17.401Z,25.60
2023-02-08T17:40:44.690Z,26.25
2023-02-08T17:43:12.953Z,22.63
2023-02-08T17:45:41.999Z,25.38
2023-02-08T17:48:09.205Z,24.98
2023-02-08T17:50:36.742Z,29.40
2023-02-08T17:53:04.052Z,23.48
2023-02-08T17:55:31.275Z,24.27
2023-02-08T17:57:58.395Z,23.98
2023-02-08T18:00:25.900Z,24.77
2023-02-08T18:02:55.512Z,22.45
2023-02-08T18:05:26.879Z,25.15
2023-02-08T18:07:55.648Z,27.50
2023-02-08T18:10:23.788Z,26.00
2023-02-08T18:12:50.753Z,23.90
2023-02-08T18:15:21.131Z,24.08
2023-02-08T18:17:50.234Z,25.85
2023-02-08T18:20:17.673Z,31.50
2023-02-08T18:22:44.672Z,23.48
2023-02-08T18:25:13.334Z,27.10
2023-02-08T18:27:40.224Z,29.45
2023-02-08T18:30:07.552Z,30.95
2023-02-08T18:32:34.327Z,26.77
2023-02-08T18:35:03.777Z,25.15
2023-02-08T18:39:58.927Z,67.57
2023-02-08T18:42:25.747Z,37.63
2023-02-08T18:44:52.395Z,31.65
2023-02-08T18:47:19.191Z,31.00
2023-02-08T18:49:47.644Z,24.58
2023-02-08T18:52:15.996Z,31.13
2023-02-08T18:54:42.767Z,26.30
2023-02-08T18:57:10.708Z,27.63
2023-02-08T18:59:39.412Z,24.98
2023-02-08T19:02:07.812Z,28.83
2023-02-08T19:04:38.646Z,33.40
2023-02-08T19:07:05.962Z,30.50
2023-02-08T19:09:36.185Z,26.77
2023-02-08T19:12:03.311Z,27.17
2023-02-08T19:14:30.110Z,26.48
2023-02-08T19:16:56.927Z,28.73
2023-02-08T19:19:23.582Z,25.30
2023-02-08T19:21:50.237Z,48.92
2023-02-08T19:24:19.525Z,34.28
2023-02-08T19:26:46.638Z,28.63
2023-02-08T19:29:17.997Z,24.33
2023-02-08T19:31:45.698Z,27.17
2023-02-08T19:34:13.425Z,26.17
2023-02-08T19:36:46.790Z,28.05
2023-02-08T19:39:16.160Z,26.25
2023-02-08T19:41:43.280Z,26.23
2023-02-08T19:44:13.234Z,28.65
2023-02-08T19:46:42.168Z,26.88
2023-02-08T19:49:11.643Z,25.95
2023-02-08T19:51:38.386Z,30.08
2023-02-08T19:54:08.533Z,26.35
2023-02-08T19:56:35.264Z,29.75
2023-02-08T19:59:08.259Z,28.60
2023-02-08T20:01:35.519Z,23.75
2023-02-08T20:04:03.348Z,24.52
2023-02-08T20:06:33.759Z,25.75
2023-02-08T20:09:00.625Z,26.75
2023-02-08T20:11:30.390Z,27.77
2023-02-08T20:13:58.778Z,26.75
2023-02-08T20:16:29.437Z,31.55
2023-02-08T20:18:58.657Z,26.20
2023-02-08T20:21:25.540Z,29.40
2023-02-08T20:23:52.526Z,25.83
2023-02-08T20:26:27.659Z,29.02
2023-02-08T20:28:57.711Z,23.15
2023-02-08T20:33:53.807Z,26.92
2023-02-08T20:36:25.684Z,24.48
2023-02-08T20:38:54.125Z,31.58
2023-02-08T20:41:22.346Z,25.45
2023-02-08T20:43:49.387Z,29.35
2023-02-08T20:46:23.622Z,24.08
2023-02-08T20:48:51.475Z,28.70
2023-02-08T20:51:20.387Z,27.77
2023-02-08T20:53:48.133Z,24.23
2023-02-08T20:56:17.722Z,29.92
2023-02-08T20:58:45.411Z,24.98
2023-02-08T21:01:19.163Z,28.70
2023-02-08T21:03:46.098Z,24.55
2023-02-08T21:06:15.353Z,29.17
2023-02-08T21:08:42.649Z,23.15
2023-02-08T21:11:09.688Z,24.95
2023-02-08T21:13:37.284Z,24.17
2023-02-08T21:16:06.197Z,26.48
2023-02-08T21:18:32.987Z,25.95
2023-02-08T21:20:59.626Z,24.42
2023-02-08T21:23:26.420Z,26.45
2023-02-08T21:25:53.517Z,22.38
2023-02-08T21:28:20.362Z,24.88
2023-02-08T21:31:02.053Z,24.90
2023-02-08T21:33:29.214Z,29.33
2023-02-08T21:35:56.226Z,31.30
2023-02-08T21:38:23.254Z,36.25
2023-02-08T21:40:49.901Z,27.50
2023-02-08T21:43:16.536Z,28.63
2023-02-08T21:45:43.341Z,26.70
2023-02-08T21:48:10.128Z,26.83
2023-02-08T21:50:57.220Z,24.70
2023-02-08T21:53:52.912Z,25.45
2023-02-08T21:56:19.654Z,43.40
2023-02-08T21:58:46.299Z,34.92
2023-02-08T22:01:13.006Z,31.52
2023-02-08T22:03:39.652Z,27.85
2023-02-08T22:06:25.179Z,32.78
2023-02-08T22:08:51.857Z,28.40
2023-02-08T22:11:18.524Z,27.52
2023-02-08T22:13:45.196Z,29.45
2023-02-08T22:16:11.981Z,26.58
2023-02-08T22:18:41.484Z,25.92
2023-02-08T22:21:08.846Z,25.10
2023-02-08T22:23:35.534Z,25.70
2023-02-08T22:26:07.589Z,25.05
2023-02-08T22:28:34.387Z,27.65
2023-02-08T22:31:01.672Z,29.20
2023-02-08T22:33:29.184Z,24.17
2023-02-08T22:35:56.087Z,27.13
2023-02-08T22:38:23.844Z,26.60
2023-02-08T22:40:50.803Z,24.05
2023-02-08T22:43:17.654Z,29.13
2023-02-08T22:45:44.320Z,37.58
2023-02-08T22:48:11.085Z,37.25
2023-02-08T22:50:38.810Z,34.60
2023-02-08T22:53:05.494Z,32.75
2023-02-08T22:55:32.136Z,28.55
2023-02-08T22:57:58.777Z,28.45
2023-02-08T23:00:25.551Z,28.10
2023-02-08T23:02:52.388Z,27.80
2023-02-08T23:05:19.293Z,30.48
2023-02-08T23:07:45.960Z,23.85
2023-02-08T23:10:12.865Z,27.70
2023-02-08T23:12:39.956Z,26.33
2023-02-08T23:15:06.971Z,24.42
2023-02-08T23:17:35.622Z,25.38
2023-02-08T23:20:02.268Z,23.17
2023-02-08T23:22:28.949Z,28.83
2023-02-08T23:24:55.743Z,22.58
2023-02-08T23:27:22.403Z,22.20
2023-02-08T23:29:49.052Z,23.02
2023-02-08T23:32:15.721Z,24.13
2023-02-08T23:34:42.372Z,24.48
2023-02-08T23:37:09.096Z,24.38
2023-02-08T23:39:35.734Z,26.50
2023-02-08T23:42:02.526Z,20.55
2023-02-08T23:44:29.263Z,23.88
2023-02-08T23:46:56.013Z,25.13
2023-02-08T23:49:22.775Z,28.20
2023-02-08T23:51:49.426Z,23.80
2023-02-08T23:54:16.103Z,26.80
2023-02-08T23:56:42.760Z,26.17
2023-02-08T23:59:10.838Z,21.77
